createdAt,value
2017-11-20T00:01:32.489Z,5.53
2017-11-20T00:04:00.448Z,6.90
2017-11-20T00:06:28.725Z,7.47
2017-11-20T00:08:56.217Z,6.40
2017-11-20T00:11:23.769Z,7.23
2017-11-20T00:13:51.256Z,5.83
2017-11-20T00:16:18.760Z,7.70
2017-11-20T00:18:46.275Z,6.90
2017-11-20T00:21:13.793Z,8.30
2017-11-20T00:23:41.242Z,8.33
2017-11-20T00:26:08.796Z,8.30
2017-11-20T00:28:36.526Z,7.60
2017-11-20T00:31:04.774Z,7.90
2017-11-20T00:33:32.294Z,6.53
2017-11-20T00:35:59.787Z,5.63
2017-11-20T00:38:27.289Z,6.50
2017-11-20T00:40:54.905Z,7.17
2017-11-20T00:43:22.413Z,6.60
2017-11-20T00:45:49.904Z,7.20
2017-11-20T00:48:17.426Z,8.93
2017-11-20T00:50:44.927Z,7.10
2017-11-20T00:53:12.417Z,7.37
2017-11-20T00:55:39.939Z,9.10
2017-11-20T00:58:07.460Z,8.17
2017-11-20T01:00:34.987Z,8.40
2017-11-20T01:03:03.242Z,9.80
2017-11-20T01:05:31.165Z,8.33
2017-11-20T01:07:58.701Z,8.57
2017-11-20T01:10:26.258Z,8.57
2017-11-20T01:12:53.767Z,9.63
2017-11-20T01:15:21.291Z,7.63
2017-11-20T01:17:48.789Z,9.70
2017-11-20T01:20:16.302Z,9.00
2017-11-20T01:22:43.799Z,9.60
2017-11-20T01:25:11.333Z,8.63
2017-11-20T01:27:38.843Z,8.73
2017-11-20T01:30:06.381Z,10.53
2017-11-20T01:32:34.658Z,10.07
2017-11-20T01:35:02.143Z,9.33
2017-11-20T01:37:29.665Z,10.00
2017-11-20T01:39:57.166Z,10.23
2017-11-20T01:42:24.672Z,9.53
2017-11-20T01:44:52.161Z,9.63
2017-11-20T01:47:20.442Z,10.40
2017-11-20T01:49:48.697Z,9.90
2017-11-20T01:52:16.996Z,11.10
2017-11-20T01:54:44.497Z,10.20
2017-11-20T01:57:11.983Z,10.70
2017-11-20T01:59:40.273Z,10.10
2017-11-20T02:02:07.782Z,11.00
2017-11-20T02:04:35.302Z,13.40
2017-11-20T02:07:02.794Z,10.70
2017-11-20T02:09:30.313Z,11.83
2017-11-20T02:11:57.813Z,12.20
2017-11-20T02:14:25.344Z,13.23
2017-11-20T02:16:52.831Z,10.77
2017-11-20T02:19:20.329Z,11.83
2017-11-20T02:21:48.621Z,11.17
2017-11-20T02:24:16.114Z,10.87
2017-11-20T02:26:43.626Z,11.30
2017-11-20T02:29:11.134Z,11.20
2017-11-20T02:31:38.668Z,12.37
2017-11-20T02:34:06.171Z,11.97
2017-11-20T02:36:34.435Z,11.60
2017-11-20T02:39:01.962Z,12.10
2017-11-20T02:41:29.473Z,12.00
2017-11-20T02:43:57.749Z,12.63
2017-11-20T02:46:26.031Z,10.60
2017-11-20T02:48:53.582Z,12.87
2017-11-20T02:51:21.888Z,11.77
2017-11-20T02:53:49.374Z,12.30
2017-11-20T02:56:16.891Z,10.97
2017-11-20T02:58:44.391Z,10.80
2017-11-20T03:01:11.925Z,11.63
2017-11-20T03:03:39.417Z,9.97
2017-11-20T03:06:06.935Z,12.20
2017-11-20T03:08:34.422Z,10.47
2017-11-20T03:11:01.943Z,10.73
2017-11-20T03:13:29.446Z,10.77
2017-11-20T03:15:56.978Z,11.83
2017-11-20T03:18:24.475Z,10.30
2017-11-20T03:20:52.724Z,11.70
2017-11-20T03:23:20.227Z,10.00
2017-11-20T03:25:47.764Z,11.30
2017-11-20T03:28:16.054Z,11.67
2017-11-20T03:30:43.553Z,10.70
2017-11-20T03:33:11.191Z,11.47
2017-11-20T03:35:38.682Z,9.77
2017-11-20T03:38:06.194Z,11.70
2017-11-20T03:40:33.700Z,11.47
2017-11-20T03:43:01.200Z,11.07
2017-11-20T03:45:28.727Z,12.30
2017-11-20T03:47:56.213Z,10.00
2017-11-20T03:50:23.737Z,12.17
2017-11-20T03:52:51.228Z,12.13
2017-11-20T03:55:18.748Z,9.77
2017-11-20T03:57:46.361Z,11.63
2017-11-20T04:00:13.879Z,10.67
2017-11-20T04:02:42.142Z,10.27
2017-11-20T04:05:09.655Z,9.90
2017-11-20T04:07:37.118Z,10.60
2017-11-20T04:10:04.664Z,10.83
2017-11-20T04:12:32.162Z,10.80
2017-11-20T04:14:59.681Z,9.07
2017-11-20T04:17:27.169Z,7.93
2017-11-20T04:19:54.662Z,10.13
2017-11-20T04:22:22.953Z,9.77
2017-11-20T04:24:50.482Z,10.00
2017-11-20T04:27:18.738Z,9.90
2017-11-20T04:29:46.355Z,9.70
2017-11-20T04:32:13.868Z,9.17
2017-11-20T04:34:41.356Z,9.13
2017-11-20T04:37:08.895Z,8.97
2017-11-20T04:39:37.149Z,8.70
2017-11-20T04:42:04.666Z,9.00
2017-11-20T04:44:32.154Z,8.83
2017-11-20T04:46:59.697Z,8.23
2017-11-20T04:49:27.198Z,10.80
2017-11-20T04:51:55.454Z,9.60
2017-11-20T04:54:22.959Z,9.63
2017-11-20T04:56:50.442Z,8.77
2017-11-20T04:59:17.974Z,9.57
2017-11-20T05:01:45.469Z,7.67
2017-11-20T05:04:12.992Z,7.30
2017-11-20T05:06:40.491Z,8.30
2017-11-20T05:09:08.031Z,9.13
2017-11-20T05:11:35.517Z,8.23
2017-11-20T05:14:03.777Z,8.40
2017-11-20T05:16:35.489Z,10.07
2017-11-20T05:19:03.498Z,8.17
2017-11-20T05:21:31.007Z,8.93
2017-11-20T05:23:58.500Z,8.37
2017-11-20T05:26:26.027Z,7.83
2017-11-20T05:28:53.581Z,8.40
2017-11-20T05:31:21.069Z,7.93
2017-11-20T05:33:48.607Z,8.17
2017-11-20T05:36:16.116Z,8.03
2017-11-20T05:38:44.414Z,8.23
2017-11-20T05:41:11.978Z,8.47
2017-11-20T05:43:39.470Z,8.40
2017-11-20T05:46:07.016Z,25.03
2017-11-20T05:48:34.546Z,7.90
2017-11-20T05:51:02.037Z,8.30
2017-11-20T05:53:29.554Z,20.07
2017-11-20T05:55:57.094Z,11.60
2017-11-20T05:58:25.378Z,10.70
2017-11-20T06:00:52.877Z,6.87
2017-11-20T06:03:20.401Z,7.00
2017-11-20T06:05:47.882Z,6.07
2017-11-20T06:08:15.398Z,5.57
2017-11-20T06:10:43.684Z,6.37
2017-11-20T06:13:11.164Z,5.83
2017-11-20T06:15:38.726Z,5.40
2017-11-20T06:18:06.523Z,6.93
2017-11-20T06:20:34.016Z,5.73
2017-11-20T06:23:01.521Z,6.80
2017-11-20T06:25:29.033Z,5.60
2017-11-20T06:27:56.551Z,4.60
2017-11-20T06:30:24.062Z,5.00
2017-11-20T06:32:51.576Z,4.77
2017-11-20T06:35:19.104Z,6.90
2017-11-20T06:37:46.597Z,4.43
2017-11-20T06:40:14.855Z,5.10
2017-11-20T06:42:42.383Z,4.83
2017-11-20T06:45:09.880Z,6.00
2017-11-20T06:47:37.372Z,5.03
2017-11-20T06:50:04.883Z,4.77
2017-11-20T06:52:32.382Z,5.40
2017-11-20T06:54:59.903Z,5.00
2017-11-20T06:57:27.395Z,5.43
2017-11-20T06:59:54.945Z,4.87
2017-11-20T07:02:22.432Z,4.80
2017-11-20T07:04:50.503Z,5.00
2017-11-20T07:07:18.010Z,5.53
2017-11-20T07:09:46.308Z,4.80
2017-11-20T07:12:13.796Z,5.80
2017-11-20T07:14:41.308Z,4.53
2017-11-20T07:17:09.581Z,4.80
2017-11-20T07:19:37.864Z,7.00
2017-11-20T07:22:06.113Z,6.23
2017-11-20T07:24:33.626Z,5.00
2017-11-20T07:27:02.179Z,4.47
2017-11-20T07:29:41.479Z,4.60
2017-11-20T07:32:08.974Z,5.90
2017-11-20T07:34:48.465Z,5.23
2017-11-20T07:37:27.770Z,4.53
2017-11-20T07:40:07.242Z,5.70
2017-11-20T07:42:34.730Z,4.40
2017-11-20T07:45:04.165Z,4.87
2017-11-20T07:47:31.678Z,5.07
2017-11-20T07:49:59.927Z,5.80
2017-11-20T07:52:27.430Z,5.60
2017-11-20T07:54:54.919Z,5.57
2017-11-20T07:57:22.442Z,7.20
2017-11-20T07:59:49.946Z,4.70
2017-11-20T08:02:17.454Z,5.10
2017-11-20T08:04:44.948Z,5.20
2017-11-20T08:07:12.462Z,5.27
2017-11-20T08:09:39.949Z,4.60
2017-11-20T08:12:07.479Z,6.07
2017-11-20T08:14:34.955Z,4.93
2017-11-20T08:17:02.443Z,4.33
2017-11-20T08:19:29.952Z,4.73
2017-11-20T08:21:57.466Z,5.50
2017-11-20T08:24:24.996Z,5.63
2017-11-20T08:26:52.917Z,5.60
2017-11-20T08:29:21.188Z,4.83
2017-11-20T08:31:49.434Z,4.33
2017-11-20T08:34:16.962Z,5.00
2017-11-20T08:36:44.449Z,4.70
2017-11-20T08:39:11.930Z,4.80
2017-11-20T08:41:40.206Z,6.47
2017-11-20T08:44:08.460Z,4.27
2017-11-20T08:46:36.447Z,6.07
2017-11-20T08:49:04.717Z,5.27
2017-11-20T08:51:32.978Z,6.17
2017-11-20T08:54:00.510Z,6.10
2017-11-20T08:56:28.006Z,5.07
2017-11-20T08:58:55.493Z,7.33
2017-11-20T09:01:23.017Z,5.17
2017-11-20T09:03:50.533Z,4.77
2017-11-20T09:06:18.033Z,4.17
2017-11-20T09:08:46.329Z,4.60
2017-11-20T09:11:13.825Z,4.50
2017-11-20T09:13:41.304Z,4.10
2017-11-20T09:16:08.827Z,4.13
2017-11-20T09:18:36.322Z,3.43
2017-11-20T09:21:03.806Z,4.63
2017-11-20T09:23:32.075Z,3.30
2017-11-20T09:26:00.321Z,4.00
2017-11-20T09:28:27.838Z,3.60
2017-11-20T09:30:55.357Z,3.50
2017-11-20T09:33:23.632Z,4.00
2017-11-20T09:35:51.904Z,4.70
2017-11-20T09:38:20.196Z,4.20
2017-11-20T09:40:47.688Z,4.60
2017-11-20T09:43:15.182Z,4.40
2017-11-20T09:45:42.698Z,4.70
2017-11-20T09:48:10.183Z,4.20
2017-11-20T09:50:37.693Z,4.90
2017-11-20T09:53:05.183Z,5.10
2017-11-20T09:55:32.700Z,5.10
2017-11-20T09:58:00.215Z,5.10
2017-11-20T10:00:27.698Z,4.87
2017-11-20T10:02:55.219Z,5.80
2017-11-20T10:05:22.730Z,5.73
2017-11-20T10:07:50.221Z,6.70
2017-11-20T10:10:17.729Z,5.60
2017-11-20T10:12:46.002Z,6.40
2017-11-20T10:15:14.262Z,7.03
2017-11-20T10:17:41.775Z,5.43
2017-11-20T10:20:09.267Z,5.47
2017-11-20T10:22:36.796Z,6.00
2017-11-20T10:25:04.290Z,8.70
2017-11-20T10:27:31.774Z,7.97
2017-11-20T10:29:59.303Z,6.93
2017-11-20T10:32:27.564Z,7.13
2017-11-20T10:34:55.062Z,7.37
2017-11-20T10:37:22.573Z,7.10
2017-11-20T10:39:50.065Z,8.10
2017-11-20T10:42:17.580Z,8.00
2017-11-20T10:44:45.100Z,8.20
2017-11-20T10:47:12.594Z,8.20
2017-11-20T10:49:40.084Z,9.77
2017-11-20T10:52:08.394Z,9.00
2017-11-20T10:54:35.878Z,9.50
2017-11-20T10:57:03.370Z,9.03
2017-11-20T10:59:31.660Z,9.60
2017-11-20T11:01:59.160Z,9.57
2017-11-20T11:04:26.672Z,10.73
2017-11-20T11:06:54.928Z,9.70
2017-11-20T11:09:23.213Z,8.33
2017-11-20T11:11:51.465Z,9.43
2017-11-20T11:14:18.985Z,10.50
2017-11-20T11:16:46.469Z,9.70
2017-11-20T11:19:13.984Z,10.80
2017-11-20T11:21:41.479Z,9.40
2017-11-20T11:24:08.999Z,10.80
2017-11-20T11:26:36.490Z,9.10
2017-11-20T11:29:03.986Z,9.70
2017-11-20T11:31:32.278Z,11.00
2017-11-20T11:33:59.781Z,10.77
2017-11-20T11:36:27.276Z,11.10
2017-11-20T11:38:55.553Z,10.47
2017-11-20T11:41:23.802Z,10.47
2017-11-20T11:43:51.317Z,11.73
2017-11-20T11:46:18.815Z,10.43
2017-11-20T11:48:46.303Z,9.77
2017-11-20T11:51:13.817Z,10.27
2017-11-20T11:53:41.350Z,11.33
2017-11-20T11:56:08.868Z,11.90
2017-11-20T11:58:37.118Z,11.13
2017-11-20T12:01:05.378Z,9.30
2017-11-20T12:03:32.886Z,9.67
2017-11-20T12:06:00.393Z,11.20
2017-11-20T12:08:27.927Z,10.00
2017-11-20T12:10:55.438Z,8.20
2017-11-20T12:13:23.695Z,10.23
2017-11-20T12:15:51.213Z,9.17
2017-11-20T12:18:18.689Z,9.43
2017-11-20T12:20:46.174Z,9.03
2017-11-20T12:23:14.462Z,8.03
2017-11-20T12:25:42.722Z,9.83
2017-11-20T12:28:10.979Z,8.47
2017-11-20T12:30:38.501Z,7.50
2017-11-20T12:33:08.137Z,7.70
2017-11-20T12:35:35.629Z,9.07
2017-11-20T12:38:04.010Z,8.80
2017-11-20T12:40:32.272Z,7.77
2017-11-20T12:43:00.525Z,7.87
2017-11-20T12:45:28.056Z,8.50
2017-11-20T12:47:55.556Z,7.60
2017-11-20T12:50:23.859Z,7.77
2017-11-20T12:52:51.347Z,7.97
2017-11-20T12:55:18.822Z,7.27
2017-11-20T12:57:46.332Z,6.27
2017-11-20T13:00:13.814Z,6.50
2017-11-20T13:02:41.325Z,6.53
2017-11-20T13:05:09.565Z,5.90
2017-11-20T13:07:37.010Z,5.33
2017-11-20T13:10:04.565Z,6.17
2017-11-20T13:12:32.043Z,5.90
2017-11-20T13:14:59.553Z,6.20
2017-11-20T13:17:27.054Z,6.43
2017-11-20T13:19:54.578Z,5.80
2017-11-20T13:22:22.068Z,5.23
2017-11-20T13:24:49.551Z,6.27
2017-11-20T13:27:17.832Z,5.60
2017-11-20T13:29:46.077Z,4.80
2017-11-20T13:32:13.561Z,5.50
2017-11-20T13:34:41.891Z,5.23
2017-11-20T13:37:09.377Z,4.40
2017-11-20T13:42:11.551Z,4.60
2017-11-20T13:44:39.056Z,4.57
2017-11-20T13:47:06.558Z,4.40
2017-11-20T13:49:34.065Z,5.17
2017-11-20T13:52:01.554Z,4.30
2017-11-20T13:54:29.072Z,4.83
2017-11-20T13:56:56.558Z,4.83
2017-11-20T13:59:24.040Z,4.47
2017-11-20T14:01:51.548Z,4.00
2017-11-20T14:04:19.026Z,3.47
2017-11-20T14:06:46.578Z,4.03
2017-11-20T14:09:14.081Z,4.20
2017-11-20T14:11:41.561Z,4.50
2017-11-20T14:14:09.090Z,4.93
2017-11-20T14:16:37.349Z,4.53
2017-11-20T14:19:04.831Z,4.23
2017-11-20T14:21:33.104Z,4.10
2017-11-20T14:24:01.373Z,3.77
2017-11-20T14:26:28.890Z,4.60
2017-11-20T14:28:56.406Z,4.10
2017-11-20T14:31:23.926Z,4.63
2017-11-20T14:33:51.413Z,4.77
2017-11-20T14:36:19.681Z,5.37
2017-11-20T14:38:47.936Z,5.90
2017-11-20T14:41:15.457Z,6.77
2017-11-20T14:43:42.932Z,4.77
2017-11-20T14:46:10.413Z,5.60
2017-11-20T14:48:40.417Z,5.40
2017-11-20T14:54:10.473Z,5.30
2017-11-20T14:56:38.770Z,4.70
2017-11-20T14:59:06.249Z,6.47
2017-11-20T15:01:45.798Z,5.50
2017-11-20T15:04:13.277Z,6.37
2017-11-20T15:06:40.758Z,6.07
2017-11-20T15:09:09.041Z,6.00
2017-11-20T15:11:37.293Z,5.80
2017-11-20T15:14:04.799Z,5.80
2017-11-20T15:16:32.293Z,6.27
2017-11-20T15:18:59.822Z,5.03
2017-11-20T15:21:27.313Z,7.10
2017-11-20T15:23:54.810Z,5.70
2017-11-20T15:26:22.338Z,6.17
2017-11-20T15:28:49.829Z,10.70
2017-11-20T15:31:17.310Z,5.67
2017-11-20T15:33:44.824Z,6.63
2017-11-20T15:36:13.078Z,7.17
2017-11-20T15:38:40.607Z,4.90
2017-11-20T15:41:08.052Z,4.80
2017-11-20T15:43:35.580Z,5.93
2017-11-20T15:46:03.097Z,6.47
2017-11-20T15:48:30.623Z,6.87
2017-11-20T15:50:58.109Z,6.70
2017-11-20T15:53:25.594Z,8.73
2017-11-20T15:55:53.875Z,7.23
2017-11-20T15:58:21.367Z,7.60
2017-11-20T16:00:48.872Z,7.50
2017-11-20T16:03:17.170Z,9.30
2017-11-20T16:05:44.656Z,9.50
2017-11-20T16:08:12.182Z,8.20
2017-11-20T16:10:39.693Z,8.50
2017-11-20T16:13:07.181Z,8.73
2017-11-20T16:15:35.473Z,8.17
2017-11-20T16:18:02.959Z,8.77
2017-11-20T16:20:30.578Z,9.27
2017-11-20T16:22:58.837Z,9.60
2017-11-20T16:25:27.121Z,8.97
2017-11-20T16:27:55.374Z,9.57
2017-11-20T16:30:22.899Z,8.50
2017-11-20T16:32:50.381Z,9.00
2017-11-20T16:35:17.863Z,7.60
2017-11-20T16:37:46.151Z,7.70
2017-11-20T16:40:13.648Z,7.57
2017-11-20T16:42:41.164Z,8.10
2017-11-20T16:45:08.658Z,6.53
2017-11-20T16:47:36.168Z,7.30
2017-11-20T16:50:04.442Z,7.97
2017-11-20T16:52:32.723Z,8.10
2017-11-20T16:55:00.973Z,7.90
2017-11-20T16:57:40.309Z,7.97
2017-11-20T17:00:19.657Z,9.20
2017-11-20T17:03:11.566Z,8.43
2017-11-20T17:05:39.077Z,9.37
2017-11-20T17:08:06.562Z,8.30
2017-11-20T17:10:34.090Z,8.33
2017-11-20T17:13:01.583Z,8.17
2017-11-20T17:15:29.069Z,9.03
2017-11-20T17:17:57.401Z,10.20
2017-11-20T17:20:24.928Z,9.00
2017-11-20T17:22:52.470Z,9.30
2017-11-20T17:25:19.923Z,9.60
2017-11-20T17:27:47.492Z,9.77
2017-11-20T17:30:15.036Z,8.60
2017-11-20T17:32:43.293Z,10.00
2017-11-20T17:35:10.811Z,10.57
2017-11-20T17:37:38.305Z,11.30
2017-11-20T17:40:05.812Z,10.00
2017-11-20T17:42:33.317Z,12.30
2017-11-20T17:45:00.824Z,12.00
2017-11-20T17:47:28.312Z,11.67
2017-11-20T17:49:55.944Z,12.87
2017-11-20T17:52:23.497Z,12.20
2017-11-20T17:54:50.986Z,11.70
2017-11-20T17:57:18.511Z,11.83
2017-11-20T17:59:46.986Z,12.50
2017-11-20T18:02:14.478Z,13.53
2017-11-20T18:04:42.810Z,12.60
2017-11-20T18:07:10.310Z,12.47
2017-11-20T18:09:37.824Z,13.77
2017-11-20T18:12:05.321Z,15.23
2017-11-20T18:14:32.837Z,13.53
2017-11-20T18:17:01.248Z,13.33
2017-11-20T18:19:28.734Z,13.43
2017-11-20T18:21:56.266Z,13.00
2017-11-20T18:24:24.658Z,14.00
2017-11-20T18:26:52.266Z,13.47
2017-11-20T18:29:19.793Z,14.67
2017-11-20T18:31:48.061Z,14.50
2017-11-20T18:34:16.349Z,14.70
2017-11-20T18:36:43.873Z,14.47
2017-11-20T18:39:11.381Z,13.47
2017-11-20T18:41:38.886Z,12.80
2017-11-20T18:44:06.426Z,12.97
2017-11-20T18:46:34.696Z,14.30
2017-11-20T18:49:02.289Z,13.17
2017-11-20T18:51:29.818Z,10.90
2017-11-20T18:53:57.323Z,12.50
2017-11-20T18:56:25.651Z,11.37
2017-11-20T18:58:53.153Z,12.50
2017-11-20T19:01:33.145Z,11.40
2017-11-20T19:07:26.022Z,9.90
2017-11-20T19:09:54.278Z,10.30
2017-11-20T19:12:21.760Z,9.57
2017-11-20T19:14:49.283Z,7.90
2017-11-20T19:17:16.773Z,7.60
2017-11-20T19:19:44.284Z,8.50
2017-11-20T19:22:11.816Z,7.90
2017-11-20T19:24:39.300Z,6.73
2017-11-20T19:27:06.800Z,6.43
2017-11-20T19:29:35.088Z,6.53
2017-11-20T19:32:02.657Z,4.37
2017-11-20T19:34:31.462Z,5.80
2017-11-20T19:36:58.982Z,4.40
2017-11-20T19:39:26.475Z,5.37
2017-11-20T19:41:54.861Z,5.77
2017-11-20T19:44:24.902Z,5.30
2017-11-20T19:46:52.437Z,5.43
2017-11-20T19:49:19.918Z,5.73
2017-11-20T19:51:47.432Z,6.20
2017-11-20T19:54:14.928Z,6.57
2017-11-20T19:56:43.176Z,6.50
2017-11-20T19:59:10.704Z,6.70
2017-11-20T20:01:38.200Z,6.90
2017-11-20T20:04:05.718Z,7.60
2017-11-20T20:06:33.201Z,7.20
2017-11-20T20:09:01.478Z,8.30
2017-11-20T20:11:29.738Z,8.07
2017-11-20T20:13:57.253Z,8.50
2017-11-20T20:16:36.804Z,7.60
2017-11-20T20:19:05.077Z,8.43
2017-11-20T20:21:32.557Z,7.37
2017-11-20T20:24:00.852Z,7.50
2017-11-20T20:26:29.139Z,7.67
2017-11-20T20:28:56.639Z,6.97
2017-11-20T20:31:24.222Z,7.67
2017-11-20T20:33:53.557Z,7.30
2017-11-20T20:36:21.062Z,7.33
2017-11-20T20:38:49.353Z,7.93
2017-11-20T20:41:17.625Z,8.63
2017-11-20T20:43:45.121Z,8.77
2017-11-20T20:46:12.645Z,8.80
2017-11-20T20:48:40.201Z,9.27
2017-11-20T20:51:07.691Z,9.70
2017-11-20T20:53:35.205Z,8.50
2017-11-20T20:56:03.470Z,9.30
2017-11-20T20:58:30.962Z,9.50
2017-11-20T21:00:59.257Z,10.20
2017-11-20T21:03:28.629Z,9.90
2017-11-20T21:05:56.183Z,10.90
2017-11-20T21:08:23.677Z,9.70
2017-11-20T21:10:56.784Z,10.57
2017-11-20T21:13:24.289Z,10.30
2017-11-20T21:15:51.809Z,12.10
2017-11-20T21:18:19.329Z,9.77
2017-11-20T21:20:47.615Z,10.43
2017-11-20T21:23:15.881Z,11.77
2017-11-20T21:25:43.397Z,12.33
2017-11-20T21:28:10.888Z,10.97
2017-11-20T21:30:38.408Z,12.33
2017-11-20T21:33:05.889Z,11.90
2017-11-20T21:35:37.430Z,12.23
2017-11-20T21:38:04.972Z,12.20
2017-11-20T21:40:32.510Z,10.63
2017-11-20T21:42:59.988Z,12.73
2017-11-20T21:45:28.314Z,12.40
2017-11-20T21:47:55.850Z,11.20
2017-11-20T21:50:24.121Z,11.77
2017-11-20T21:52:52.450Z,10.33
2017-11-20T21:55:19.949Z,12.40
2017-11-20T21:57:48.219Z,12.00
2017-11-20T22:00:15.768Z,11.70
2017-11-20T22:02:43.300Z,11.90
2017-11-20T22:05:11.586Z,10.57
2017-11-20T22:07:39.082Z,11.90
2017-11-20T22:10:08.848Z,11.03
2017-11-20T22:15:53.790Z,10.93
2017-11-20T22:18:21.282Z,11.83
2017-11-20T22:21:08.294Z,10.87
2017-11-20T22:23:35.776Z,10.33
2017-11-20T22:26:04.057Z,10.60
2017-11-20T22:28:31.569Z,9.67
2017-11-20T22:30:59.068Z,10.30
2017-11-20T22:33:26.610Z,10.87
2017-11-20T22:35:54.132Z,10.60
2017-11-20T22:38:21.657Z,9.90
2017-11-20T22:40:49.152Z,8.67
2017-11-20T22:43:16.636Z,9.37
2017-11-20T22:45:44.158Z,9.93
2017-11-20T22:51:05.708Z,8.07
2017-11-20T22:53:35.403Z,8.50
2017-11-20T22:56:02.938Z,8.73
2017-11-20T23:01:22.325Z,8.93
2017-11-20T23:03:49.814Z,9.70
2017-11-20T23:06:17.345Z,9.10
2017-11-20T23:08:45.444Z,9.13
2017-11-20T23:11:12.974Z,8.50
2017-11-20T23:13:42.142Z,8.60
2017-11-20T23:16:11.027Z,9.10
2017-11-20T23:18:43.690Z,10.30
2017-11-20T23:21:15.436Z,9.60
2017-11-20T23:23:47.893Z,10.40
2017-11-20T23:26:16.788Z,10.23
2017-11-20T23:28:44.329Z,10.40
2017-11-20T23:31:12.647Z,10.53
2017-11-20T23:33:40.209Z,10.00
2017-11-20T23:36:07.719Z,10.50
2017-11-20T23:38:35.896Z,11.80
2017-11-20T23:41:03.493Z,12.37
2017-11-20T23:43:32.056Z,11.17
2017-11-20T23:46:00.366Z,14.00
2017-11-20T23:48:28.675Z,12.77
2017-11-20T23:50:56.285Z,12.27
2017-11-20T23:53:33.660Z,13.90
2017-11-20T23:56:01.185Z,12.30
2017-11-20T23:58:28.674Z,12.50
